Time;durP1;ratioP1;P1;durP2;ratioP2;P2;SDS_P1;SDS_P2;PMS_P1;PMS_P2;Temp;Humidity;BMP_temperature;BMP_pressure;BME280_temperature;BME280_humidity;BME280_pressure;Samples;Min_cycle;Max_cycle;Signal;HPM_P1;HPM_P2
2021/03/06 00:00:25;;;;;;;19.27;10.17;;;;;;;9.48;40.25;94996.72;5059861;28;20445;-78
2021/03/06 00:02:52;;;;;;;17.20;9.97;;;;;;;9.43;40.26;94996.25;5095452;28;20437;-78
2021/03/06 00:05:19;;;;;;;21.57;10.40;;;;;;;9.46;40.48;94996.00;5095283;28;20428;-78
2021/03/06 00:07:46;;;;;;;15.43;10.30;;;;;;;9.53;40.32;94998.97;5095151;28;20466;-78
2021/03/06 00:10:13;;;;;;;17.43;9.57;;;;;;;9.54;40.38;95004.09;5059994;28;20448;-78
2021/03/06 00:12:40;;;;;;;14.10;10.23;;;;;;;9.52;40.91;94995.50;5094992;28;20437;-78
2021/03/06 00:15:08;;;;;;;23.47;10.50;;;;;;;9.49;41.07;94994.91;5094722;28;20527;-78
2021/03/06 00:17:34;;;;;;;15.73;9.73;;;;;;;9.48;40.82;94991.47;5043136;28;20456;-78
2021/03/06 00:20:01;;;;;;;18.93;10.40;;;;;;;9.51;40.77;95006.94;5094559;28;20441;-78
2021/03/06 00:22:27;;;;;;;21.80;10.00;;;;;;;9.53;40.75;95006.81;5059200;28;20453;-78
2021/03/06 00:24:55;;;;;;;17.77;10.47;;;;;;;9.52;41.12;95003.38;5094485;28;20452;-78
2021/03/06 00:27:22;;;;;;;17.37;10.10;;;;;;;9.49;41.40;95000.16;5095161;28;20464;-78
2021/03/06 00:29:48;;;;;;;14.67;9.90;;;;;;;9.49;41.72;95003.59;5095018;28;20448;-78
2021/03/06 00:32:15;;;;;;;16.10;10.83;;;;;;;9.48;42.20;94996.72;5093829;28;20491;-78
2021/03/06 00:34:41;;;;;;;20.33;10.00;;;;;;;9.49;42.10;95002.78;5094187;28;20459;-78
2021/03/06 00:37:07;;;;;;;17.67;9.73;;;;;;;9.49;41.91;94993.13;5094138;28;20489;-78
2021/03/06 00:39:35;;;;;;;14.80;10.53;;;;;;;9.49;42.11;95000.16;5094190;28;20447;-78
2021/03/06 00:42:02;;;;;;;19.80;11.43;;;;;;;9.49;42.10;94997.53;5094273;28;20974;-78
2021/03/06 00:44:28;;;;;;;15.73;10.10;;;;;;;9.44;42.45;94999.69;5042452;28;20436;-77
2021/03/06 00:46:56;;;;;;;16.93;11.00;;;;;;;9.41;42.75;95003.38;5094578;28;20445;-78
2021/03/06 00:49:24;;;;;;;26.90;11.70;;;;;;;9.34;42.63;95001.38;5094255;28;20507;-78
2021/03/06 00:51:50;;;;;;;18.50;11.40;;;;;;;9.30;42.78;94998.16;5094767;28;20775;-78
2021/03/06 00:54:17;;;;;;;18.30;10.53;;;;;;;9.33;42.79;95000.53;5093832;28;20428;-78
2021/03/06 00:56:43;;;;;;;17.50;10.57;;;;;;;9.35;42.82;95000.44;5041643;28;21220;-78
2021/03/06 00:59:11;;;;;;;23.47;10.67;;;;;;;9.38;42.91;94995.78;5093783;28;20833;-78
2021/03/06 01:01:37;;;;;;;18.80;10.97;;;;;;;9.39;42.66;94996.59;5094275;28;20449;-78
2021/03/06 01:04:04;;;;;;;25.50;11.73;;;;;;;9.43;42.66;94987.56;5094181;28;20429;-78
2021/03/06 01:06:31;;;;;;;20.47;12.00;;;;;;;9.45;42.87;94990.88;5093598;28;20454;-78
2021/03/06 01:08:57;;;;;;;17.90;11.80;;;;;;;9.46;43.20;94990.75;5094080;28;20485;-78
2021/03/06 01:11:24;;;;;;;17.97;11.50;;;;;;;9.47;43.46;94996.81;5094896;28;20436;-78
2021/03/06 01:13:50;;;;;;;19.07;10.47;;;;;;;9.46;42.80;94989.94;5093474;28;20531;-78
2021/03/06 01:16:17;;;;;;;16.30;9.93;;;;;;;9.45;43.20;94993.50;5093551;28;20469;-78
2021/03/06 01:18:44;;;;;;;18.33;10.47;;;;;;;9.42;43.18;94985.88;5093515;28;20476;-78
2021/03/06 01:21:10;;;;;;;15.23;10.63;;;;;;;9.38;43.56;94984.47;5094075;28;20759;-77
2021/03/06 01:23:36;;;;;;;18.10;10.63;;;;;;;9.29;43.71;94989.47;5094036;28;20455;-78
2021/03/06 01:26:03;;;;;;;15.97;9.90;;;;;;;9.22;43.79;94983.03;5093494;28;20506;-78
2021/03/06 01:28:29;;;;;;;23.63;12.07;;;;;;;9.19;43.73;94982.44;5093771;28;20949;-78
2021/03/06 01:30:55;;;;;;;19.40;10.77;;;;;;;9.15;43.86;94987.09;5042117;28;20525;-78
2021/03/06 01:33:23;;;;;;;21.50;11.90;;;;;;;9.14;44.42;94987.22;5094099;28;20499;-78
2021/03/06 01:35:49;;;;;;;15.00;10.60;;;;;;;9.09;45.17;94991.97;5041537;28;20485;-78
2021/03/06 01:38:16;;;;;;;14.27;10.70;;;;;;;9.07;44.98;94986.84;5093625;28;20444;-78
2021/03/06 01:40:42;;;;;;;17.43;11.60;;;;;;;9.08;45.06;94983.28;5093588;28;20455;-77
2021/03/06 01:43:12;;;;;;;16.40;12.23;;;;;;;9.07;45.50;94981.63;5058488;28;20948;-78
2021/03/06 01:45:39;;;;;;;14.50;11.17;;;;;;;9.05;45.61;94985.31;5097968;28;20501;-78
2021/03/06 01:48:06;;;;;;;15.93;11.93;;;;;;;9.04;45.60;94987.09;5097620;28;20525;-78
2021/03/06 01:50:35;;;;;;;22.23;13.00;;;;;;;9.05;45.80;94988.75;5097660;28;21011;-78
2021/03/06 01:53:05;;;;;;;16.07;10.30;;;;;;;9.05;45.73;94994.00;5097792;28;20459;-78
2021/03/06 01:55:33;;;;;;;24.07;11.60;;;;;;;9.07;46.13;94989.47;5097446;28;20831;-77
2021/03/06 01:58:01;;;;;;;27.00;11.23;;;;;;;9.05;45.91;94986.16;5062031;28;20437;-78
2021/03/06 02:00:28;;;;;;;23.03;11.70;;;;;;;9.04;47.09;94988.88;5097637;28;20429;-78
2021/03/06 02:02:56;;;;;;;15.70;10.37;;;;;;;9.03;46.44;94993.28;5097323;28;20502;-78
2021/03/06 02:05:23;;;;;;;16.33;11.53;;;;;;;8.97;46.70;94984.13;5097552;28;20440;-78
2021/03/06 02:07:50;;;;;;;22.77;12.47;;;;;;;8.98;46.88;94987.56;5097630;28;20495;-78
2021/03/06 02:10:20;;;;;;;20.70;12.00;;;;;;;8.95;46.91;94987.78;5097146;28;20450;-78
2021/03/06 02:12:54;;;;;;;18.73;12.07;;;;;;;8.93;46.98;94992.31;5097398;28;20444;-78
2021/03/06 02:15:33;;;;;;;15.83;11.27;;;;;;;8.84;47.32;94990.41;5096776;28;20495;-77
2021/03/06 02:18:03;;;;;;;14.47;10.43;;;;;;;8.85;47.49;94997.31;5097256;28;20448;-78
2021/03/06 02:20:45;;;;;;;17.47;11.07;;;;;;;8.83;47.67;94988.72;5096987;28;20441;-78
2021/03/06 02:23:43;;;;;;;15.30;10.80;;;;;;;8.80;47.75;94999.44;5097026;28;20622;-77
2021/03/06 02:26:42;;;;;;;16.10;9.83;;;;;;;8.80;47.90;94994.22;5096752;28;20440;-77
2021/03/06 02:29:32;;;;;;;14.63;9.77;;;;;;;8.83;48.11;94993.97;4995253;28;20484;-77
2021/03/06 02:32:04;;;;;;;22.00;12.47;;;;;;;8.77;48.49;94997.88;4995073;28;20448;-78
2021/03/06 02:34:32;;;;;;;17.20;11.30;;;;;;;8.80;48.66;95002.06;4994984;28;20448;-78
2021/03/06 02:37:02;;;;;;;25.97;12.10;;;;;;;8.80;48.98;94996.81;4995026;28;21007;-78
2021/03/06 02:39:31;;;;;;;17.40;11.30;;;;;;;8.79;48.99;95003.84;4994932;28;20528;-78
2021/03/06 02:41:59;;;;;;;18.07;11.47;;;;;;;8.81;49.02;95003.72;4995266;28;20488;-77
2021/03/06 02:44:28;;;;;;;16.63;11.37;;;;;;;8.74;48.67;95000.75;4978753;28;20448;-78
2021/03/06 02:46:56;;;;;;;17.03;11.27;;;;;;;8.67;49.38;95005.63;4994792;28;20933;-78
2021/03/06 02:49:23;;;;;;;21.10;11.73;;;;;;;8.70;49.26;95004.53;4995288;28;20449;-78
2021/03/06 02:51:49;;;;;;;26.13;14.37;;;;;;;8.63;49.47;95005.94;4994630;28;20774;-78
2021/03/06 02:54:16;;;;;;;22.97;14.33;;;;;;;8.63;49.60;95014.63;4994765;28;20539;-78
2021/03/06 02:56:43;;;;;;;30.40;17.30;;;;;;;8.56;50.33;95007.34;4993514;28;20527;-78
2021/03/06 02:59:29;;;;;;;28.17;14.77;;;;;;;8.52;49.92;95013.75;4994612;28;20580;-77
2021/03/06 03:02:09;;;;;;;23.30;13.77;;;;;;;8.50;50.39;95018.28;4962041;28;20439;-77
2021/03/06 03:04:46;;;;;;;17.30;11.80;;;;;;;8.49;50.73;95027.06;4994578;28;20440;-77
2021/03/06 03:07:23;;;;;;;21.43;12.50;;;;;;;8.49;50.62;95021.84;5096264;28;20512;-78
2021/03/06 03:09:56;;;;;;;19.30;12.30;;;;;;;8.51;50.44;95030.41;5096130;28;20449;-78
2021/03/06 03:12:25;;;;;;;21.27;12.80;;;;;;;8.51;51.13;95023.38;5096200;28;20440;-77
2021/03/06 03:14:57;;;;;;;17.67;11.37;;;;;;;8.51;50.57;95033.03;5096245;28;20439;-77
2021/03/06 03:17:29;;;;;;;26.70;13.73;;;;;;;8.51;51.40;95030.41;5096002;28;20492;-78
2021/03/06 03:20:00;;;;;;;20.37;13.77;;;;;;;8.45;51.48;95034.31;5096046;28;20428;-77
2021/03/06 03:22:31;;;;;;;21.23;13.50;;;;;;;8.45;51.80;95039.53;5095808;28;20450;-78
2021/03/06 03:25:01;;;;;;;25.77;14.63;;;;;;;8.43;51.80;95036.22;5096397;28;20435;-78
2021/03/06 03:27:29;;;;;;;29.67;14.40;;;;;;;8.44;53.06;95045.72;5096447;28;20807;-78
2021/03/06 03:29:58;;;;;;;27.43;13.40;;;;;;;8.40;52.39;95046.91;5095515;28;20443;-77
2021/03/06 03:32:27;;;;;;;15.13;10.33;;;;;;;8.36;53.62;95042.81;5095368;28;20486;-78
2021/03/06 03:34:56;;;;;;;20.77;13.97;;;;;;;8.28;57.25;95048.59;5095815;28;20444;-77
2021/03/06 03:37:23;;;;;;;18.40;13.27;;;;;;;8.28;59.05;95056.44;5095490;28;20479;-78
2021/03/06 03:39:50;;;;;;;21.33;14.37;;;;;;;8.29;59.16;95059.88;5095544;28;20439;-78
2021/03/06 03:42:20;;;;;;;21.73;13.17;;;;;;;8.27;59.44;95067.00;5095602;28;20450;-78
2021/03/06 03:44:48;;;;;;;18.03;12.97;;;;;;;8.22;60.18;95066.50;5095734;28;20436;-77
2021/03/06 03:47:17;;;;;;;18.40;14.00;;;;;;;8.25;59.95;95061.88;5095707;28;20435;-78
2021/03/06 03:49:44;;;;;;;19.93;14.53;;;;;;;8.30;59.79;95069.38;5095166;28;20489;-77
2021/03/06 03:52:11;;;;;;;23.20;13.80;;;;;;;8.41;59.33;95072.09;5095414;28;20440;-77
2021/03/06 03:54:39;;;;;;;19.87;13.20;;;;;;;8.50;58.73;95071.41;5095106;28;20473;-78
2021/03/06 03:57:08;;;;;;;25.40;11.93;;;;;;;8.54;55.67;95078.09;5059829;28;20559;-77
2021/03/06 03:59:34;;;;;;;21.53;12.23;;;;;;;8.57;54.15;95083.09;5094963;28;20447;-77
2021/03/06 04:02:00;;;;;;;21.50;12.40;;;;;;;8.53;53.85;95086.03;5059868;28;20442;-78
2021/03/06 04:04:30;;;;;;;21.27;12.97;;;;;;;8.48;53.84;95089.00;5094871;28;20943;-78
2021/03/06 04:06:59;;;;;;;27.17;12.17;;;;;;;8.44;53.42;95082.34;5095840;28;20451;-77
2021/03/06 04:09:26;;;;;;;23.97;11.50;;;;;;;8.42;53.35;95088.63;5095049;28;20447;-78
2021/03/06 04:11:53;;;;;;;21.77;12.13;;;;;;;8.41;53.27;95095.63;5095142;28;20967;-78
2021/03/06 04:14:19;;;;;;;17.17;11.90;;;;;;;8.34;53.59;95102.22;5095221;28;20448;-77
2021/03/06 04:16:47;;;;;;;26.97;12.53;;;;;;;8.31;53.55;95105.03;5094997;28;20486;-78
2021/03/06 04:19:14;;;;;;;18.93;10.63;;;;;;;8.28;53.51;95113.94;5094535;28;21028;-78
2021/03/06 04:21:40;;;;;;;24.23;12.37;;;;;;;8.18;53.70;95104.28;5042752;28;20428;-77
2021/03/06 04:24:08;;;;;;;25.43;12.70;;;;;;;8.16;54.04;95109.59;5094481;28;20436;-78
2021/03/06 04:26:35;;;;;;;19.00;12.90;;;;;;;8.15;54.67;95107.94;5042711;28;20547;-77
2021/03/06 04:29:02;;;;;;;16.33;11.10;;;;;;;8.13;54.77;95109.00;5094680;28;20550;-78
2021/03/06 04:31:28;;;;;;;17.30;11.20;;;;;;;8.17;54.97;95115.66;5094807;28;20428;-78
2021/03/06 04:33:54;;;;;;;23.00;14.07;;;;;;;8.18;54.61;95106.88;5094625;28;20471;-78
2021/03/06 04:36:21;;;;;;;32.17;13.87;;;;;;;8.15;55.46;95113.16;5094480;28;20490;-77
2021/03/06 04:38:47;;;;;;;22.57;11.70;;;;;;;8.16;55.05;95109.59;5094305;28;20812;-78
2021/03/06 04:41:14;;;;;;;20.10;12.77;;;;;;;8.18;55.42;95115.56;5094408;28;20806;-78
2021/03/06 04:43:40;;;;;;;23.30;12.60;;;;;;;8.16;56.13;95108.78;5058919;28;20436;-78
2021/03/06 04:46:07;;;;;;;24.27;12.40;;;;;;;8.11;56.47;95111.72;5094347;28;20962;-78
2021/03/06 04:48:35;;;;;;;22.47;13.83;;;;;;;8.15;56.37;95117.56;5094096;28;20908;-77
2021/03/06 04:51:02;;;;;;;29.40;17.10;;;;;;;8.15;57.28;95112.34;5093959;28;20936;-78
2021/03/06 04:53:28;;;;;;;25.83;18.00;;;;;;;8.12;56.77;95123.00;5093890;28;20436;-77
2021/03/06 04:55:54;;;;;;;30.70;19.87;;;;;;;8.06;57.43;95122.47;5094937;28;20482;-78
2021/03/06 04:58:22;;;;;;;21.27;16.30;;;;;;;8.09;57.51;95124.03;5093913;28;20947;-78
2021/03/06 05:00:48;;;;;;;23.30;16.40;;;;;;;7.93;58.81;95124.31;5094130;28;20448;-82
2021/03/06 05:03:15;;;;;;;24.07;15.67;;;;;;;8.03;60.56;95129.69;5094278;28;20423;-76
2021/03/06 05:05:41;;;;;;;26.57;15.77;;;;;;;8.12;62.42;95131.69;5093910;28;20855;-77
2021/03/06 05:08:07;;;;;;;26.03;16.80;;;;;;;8.18;65.64;95135.63;5094194;28;20798;-77
2021/03/06 05:10:34;;;;;;;32.53;20.58;;;;;;;8.27;66.01;95145.44;5093319;28;20466;-77
2021/03/06 05:13:00;;;;;;;36.03;19.27;;;;;;;8.36;65.96;95147.41;5093880;28;20197;-77
2021/03/06 05:15:28;;;;;;;28.93;18.70;;;;;;;8.46;66.47;95152.81;5057908;28;20447;-77
2021/03/06 05:17:54;;;;;;;25.30;17.00;;;;;;;8.51;66.48;95162.00;5093075;28;20562;-77
2021/03/06 05:20:21;;;;;;;28.00;16.30;;;;;;;8.47;67.12;95160.56;5093655;28;20444;-78
2021/03/06 05:22:47;;;;;;;28.87;15.70;;;;;;;8.51;67.59;95169.84;5076259;28;20457;-78
2021/03/06 05:25:13;;;;;;;26.40;16.53;;;;;;;8.54;68.27;95176.63;5039961;28;20437;-78
2021/03/06 05:27:40;;;;;;;32.60;17.87;;;;;;;8.37;69.68;95180.44;5091734;28;20834;-78
2021/03/06 05:30:07;;;;;;;26.50;16.30;;;;;;;8.31;69.70;95181.69;5093280;28;20456;-79
2021/03/06 05:32:34;;;;;;;26.27;17.43;;;;;;;8.29;70.79;95185.38;5057725;28;21613;-78
2021/03/06 05:35:01;;;;;;;30.20;18.13;;;;;;;8.27;70.78;95187.25;5092832;28;20431;-78
2021/03/06 05:37:27;;;;;;;29.63;18.80;;;;;;;8.19;72.16;95207.88;5093487;28;20565;-78
2021/03/06 05:39:53;;;;;;;26.27;17.10;;;;;;;8.19;73.16;95210.50;5093572;28;20439;-78
2021/03/06 05:42:20;;;;;;;25.20;17.43;;;;;;;8.13;73.67;95208.31;5093712;28;20946;-78
2021/03/06 05:44:47;;;;;;;25.93;18.73;;;;;;;7.98;74.71;95208.44;5094194;28;20451;-78
2021/03/06 05:47:14;;;;;;;31.10;20.17;;;;;;;7.94;75.35;95224.44;5093316;28;20450;-78
2021/03/06 05:49:41;;;;;;;30.70;19.53;;;;;;;7.86;76.15;95211.06;5093665;28;20435;-78
2021/03/06 05:52:09;;;;;;;36.87;22.17;;;;;;;7.76;78.47;95224.75;5097786;28;20429;-78
2021/03/06 05:54:36;;;;;;;34.95;22.40;;;;;;;8.46;81.62;95246.97;5097067;28;20486;-78
2021/03/06 05:57:05;;;;;;;38.10;23.47;;;;;;;8.16;79.55;95237.69;5098917;28;20600;-78
2021/03/06 05:59:32;;;;;;;45.17;22.53;;;;;;;8.02;81.13;95254.31;5101230;28;20447;-79
2021/03/06 06:01:59;;;;;;;34.57;23.57;;;;;;;7.89;81.98;95253.50;5100598;28;20435;-79
2021/03/06 06:04:28;;;;;;;39.20;23.20;;;;;;;7.76;82.86;95257.84;5100308;28;20473;-79
2021/03/06 06:06:57;;;;;;;37.80;22.70;;;;;;;7.63;83.89;95257.03;5097743;28;20444;-79
2021/03/06 06:09:23;;;;;;;40.92;26.13;;;;;;;7.64;84.82;95263.94;5095905;28;20804;-79
2021/03/06 06:11:50;;;;;;;35.83;20.90;;;;;;;7.54;85.63;95268.09;5095547;28;20565;-79
2021/03/06 06:14:16;;;;;;;40.30;21.33;;;;;;;7.38;87.25;95283.94;5094941;28;20451;-79
2021/03/06 06:16:43;;;;;;;38.60;23.40;;;;;;;7.25;89.27;95288.31;5058384;28;20483;-78
2021/03/06 06:19:10;;;;;;;35.93;20.00;;;;;;;7.20;90.37;95296.41;5093218;28;20440;-79
2021/03/06 06:21:41;;;;;;;38.93;22.57;;;;;;;7.20;90.46;95306.00;5093439;28;20443;-79
2021/03/06 06:24:10;;;;;;;47.53;25.60;;;;;;;9.30;100.00;95313.22;5077663;28;20475;-80
2021/03/06 06:26:37;;;;;;;39.00;23.77;;;;;;;8.22;91.34;95327.91;5073308;28;21011;-79
2021/03/06 06:29:04;;;;;;;36.33;22.03;;;;;;;8.03;90.18;95334.38;5073874;28;20776;-85
2021/03/06 06:31:30;;;;;;;21.77;15.47;;;;;;;7.46;88.65;95342.53;5076168;28;20449;-80
2021/03/06 06:33:57;;;;;;;15.33;10.63;;;;;;;6.95;88.09;95327.66;5077287;28;20488;-79
2021/03/06 06:36:44;;;;;;;18.07;11.70;;;;;;;6.59;89.64;95360.28;5042275;28;20479;-80
2021/03/06 06:39:11;;;;;;;15.80;10.80;;;;;;;6.27;90.69;95364.03;5015000;28;20790;-79
2021/03/06 06:41:55;;;;;;;18.23;11.87;;;;;;;5.95;93.80;95371.16;5015246;28;20434;-81
2021/03/06 06:44:23;;;;;;;13.63;9.23;;;;;;;5.75;95.64;95370.50;5015195;28;20458;-80
2021/03/06 06:46:50;;;;;;;16.40;12.80;;;;;;;5.64;95.48;95375.50;5015066;28;20905;-79
2021/03/06 06:49:16;;;;;;;20.30;13.67;;;;;;;5.41;96.42;95379.44;5014953;28;20524;-80
2021/03/06 06:52:00;;;;;;;13.07;10.60;;;;;;;5.35;95.71;95398.00;5015037;28;20439;-81
2021/03/06 06:54:27;;;;;;;16.67;11.13;;;;;;;5.35;98.56;95398.00;5014967;28;20803;-81
2021/03/06 06:57:10;;;;;;;11.17;10.17;;;;;;;5.19;95.76;95412.78;5014900;28;20577;-80
2021/03/06 06:59:38;;;;;;;15.40;11.23;;;;;;;5.15;96.57;95417.31;5028253;28;20460;-80
2021/03/06 07:02:08;;;;;;;12.70;9.70;;;;;;;5.06;96.78;95416.97;5034657;28;20480;-81
2021/03/06 07:04:51;;;;;;;12.50;9.60;;;;;;;5.08;96.82;95421.19;5034309;28;20430;-79
2021/03/06 07:07:18;;;;;;;11.43;9.80;;;;;;;5.06;96.58;95428.22;5019603;28;20427;-80
2021/03/06 07:10:00;;;;;;;17.00;10.60;;;;;;;5.05;95.81;95430.91;5014192;28;20443;-80
2021/03/06 07:12:33;;;;;;;16.90;11.07;;;;;;;5.04;96.43;95442.25;5015434;28;20439;-80
2021/03/06 07:15:00;;;;;;;14.77;11.30;;;;;;;5.03;95.65;95443.16;5017432;28;20428;-80
2021/03/06 07:17:38;;;;;;;10.60;8.87;;;;;;;5.07;96.43;95449.88;5075831;28;20487;-80
2021/03/06 07:20:08;;;;;;;9.57;6.57;;;;;;;5.09;96.15;95454.06;5076333;28;20495;-82
2021/03/06 07:22:34;;;;;;;10.80;7.93;;;;;;;5.09;94.43;95454.06;5093115;28;20431;-82
2021/03/06 07:25:02;;;;;;;13.73;8.67;;;;;;;5.12;94.68;95453.91;5098090;28;20442;-81
2021/03/06 07:27:28;;;;;;;10.13;8.20;;;;;;;5.04;94.06;95458.69;5095952;28;20962;-82
2021/03/06 07:29:55;;;;;;;11.90;8.40;;;;;;;5.00;93.92;95453.72;5095711;28;20815;-82
2021/03/06 07:32:29;;;;;;;12.50;9.23;;;;;;;5.01;94.67;95465.81;5096390;28;20467;-82
2021/03/06 07:35:02;;;;;;;8.33;7.43;;;;;;;5.07;93.96;95468.91;5096010;28;20463;-82
2021/03/06 07:37:30;;;;;;;10.47;8.10;;;;;;;5.07;93.67;95486.28;5096187;28;20471;-82
2021/03/06 07:39:58;;;;;;;12.33;8.83;;;;;;;5.02;94.42;95489.13;5095876;28;20891;-82
2021/03/06 07:42:30;;;;;;;11.13;7.77;;;;;;;5.00;95.17;95487.53;5095495;28;20946;-82
2021/03/06 07:44:57;;;;;;;14.60;8.70;;;;;;;4.94;94.69;95492.16;5095993;28;20459;-82
2021/03/06 07:47:28;;;;;;;12.90;8.60;;;;;;;4.92;95.47;95507.00;5096029;28;20431;-81
2021/03/06 07:49:58;;;;;;;13.45;9.05;;;;;;;4.88;96.42;95502.00;5096255;28;20420;-81
2021/03/06 07:52:26;;;;;;;8.47;7.00;;;;;;;4.80;96.03;95505.03;5095467;28;20208;-82
2021/03/06 07:54:54;;;;;;;10.73;7.63;;;;;;;4.89;100.00;95512.34;5095521;28;20442;-81
2021/03/06 07:57:20;;;;;;;11.13;8.73;;;;;;;4.95;99.53;95512.03;5095722;28;20483;-82
2021/03/06 07:59:49;;;;;;;7.80;5.70;;;;;;;4.86;98.46;95504.69;5094834;28;20486;-81
2021/03/06 08:02:37;;;;;;;12.13;7.97;;;;;;;4.88;97.99;95510.66;5095061;28;20927;-81
2021/03/06 08:05:03;;;;;;;12.50;7.40;;;;;;;4.93;97.99;95500.88;5094984;28;20423;-82
2021/03/06 08:07:42;;;;;;;13.83;9.73;;;;;;;4.76;97.99;95508.72;5095055;28;20936;-81
2021/03/06 08:10:10;;;;;;;11.27;7.83;;;;;;;4.67;98.08;95519.59;5095513;28;20439;-81
2021/03/06 08:12:38;;;;;;;14.20;8.93;;;;;;;4.78;98.47;95521.63;5095201;28;20522;-81
2021/03/06 08:15:28;;;;;;;8.80;6.10;;;;;;;4.68;98.39;95530.84;5095227;28;20506;-82
2021/03/06 08:17:56;;;;;;;9.60;6.97;;;;;;;4.67;99.61;95535.19;5059509;28;20477;-81
2021/03/06 08:20:24;;;;;;;12.83;8.17;;;;;;;4.66;98.79;95536.09;5094579;28;20429;-81
2021/03/06 08:23:19;;;;;;;8.90;6.90;;;;;;;4.78;97.84;95532.88;5097386;28;20813;-81
2021/03/06 08:25:47;;;;;;;6.43;5.07;;;;;;;4.63;96.78;95546.66;5095102;28;20965;-81
2021/03/06 08:28:24;;;;;;;6.43;4.80;;;;;;;4.56;96.08;95553.06;5095026;28;20518;-82
2021/03/06 08:30:52;;;;;;;6.17;4.60;;;;;;;4.49;95.12;95541.31;5095255;28;20444;-81
2021/03/06 08:33:18;;;;;;;8.90;5.90;;;;;;;4.54;95.97;95555.75;5094973;28;20502;-80
2021/03/06 08:35:45;;;;;;;6.90;5.90;;;;;;;4.52;95.10;95552.38;5059861;28;20526;-81
2021/03/06 08:38:29;;;;;;;8.43;5.13;;;;;;;4.52;95.36;95555.00;5094807;28;20475;-82
2021/03/06 08:40:57;;;;;;;8.20;5.33;;;;;;;4.26;95.45;95566.69;5093845;28;20447;-81
2021/03/06 08:43:23;;;;;;;5.47;4.13;;;;;;;4.19;95.95;95569.66;5094717;28;20443;-80
2021/03/06 08:45:51;;;;;;;10.13;6.45;;;;;;;4.17;96.94;95567.13;5089111;28;20452;-82
2021/03/06 08:48:22;;;;;;;8.07;6.37;;;;;;;4.19;98.09;95580.88;5073888;28;20573;-81
2021/03/06 08:50:48;;;;;;;4.93;4.47;;;;;;;4.09;96.09;95582.25;5073921;28;20823;-81
2021/03/06 08:53:15;;;;;;;9.40;7.03;;;;;;;4.04;97.14;95581.63;5073160;28;20452;-79
2021/03/06 08:55:44;;;;;;;5.63;4.30;;;;;;;4.03;96.19;95585.13;5073604;28;20424;-81
2021/03/06 08:58:12;;;;;;;7.03;4.73;;;;;;;3.99;94.93;95594.81;5080517;28;20529;-81
2021/03/06 09:00:40;;;;;;;7.60;5.53;;;;;;;3.95;93.75;95598.47;5088869;28;20451;-81
2021/03/06 09:03:16;;;;;;;6.90;5.27;;;;;;;3.89;92.45;95603.13;5075579;28;20548;-82
2021/03/06 09:05:45;;;;;;;9.77;6.87;;;;;;;3.92;94.48;95602.97;5084198;28;21100;-80
2021/03/06 09:08:11;;;;;;;7.00;6.30;;;;;;;3.99;93.13;95615.59;5091533;28;20469;-78
2021/03/06 09:10:40;;;;;;;6.40;5.60;;;;;;;4.03;93.33;95611.09;5091887;28;20532;-81
2021/03/06 09:13:11;;;;;;;5.75;5.22;;;;;;;4.12;92.18;95615.88;5094618;28;20198;-82
2021/03/06 09:15:41;;;;;;;5.20;4.60;;;;;;;4.05;91.11;95627.47;5094764;28;20198;-81
2021/03/06 09:18:09;;;;;;;7.57;6.43;;;;;;;4.01;91.49;95620.72;5059321;28;20479;-82
2021/03/06 09:20:56;;;;;;;7.37;6.20;;;;;;;3.97;91.41;95621.78;5094265;28;20221;-82
2021/03/06 09:23:24;;;;;;;8.77;6.22;;;;;;;3.98;91.58;95629.50;5094658;28;20439;-82
2021/03/06 09:25:50;;;;;;;10.97;6.83;;;;;;;4.01;92.32;95628.50;5094495;28;20352;-81
2021/03/06 09:28:22;;;;;;;8.13;6.25;;;;;;;4.00;90.48;95626.81;5094198;28;20447;-81
2021/03/06 09:30:49;;;;;;;9.10;7.25;;;;;;;3.97;90.68;95627.81;5094481;28;20201;-81
2021/03/06 09:33:31;;;;;;;9.40;7.57;;;;;;;4.13;92.57;95633.13;5093788;28;20237;-81
2021/03/06 09:36:00;;;;;;;7.07;6.03;;;;;;;4.04;91.81;95630.94;5094071;28;20262;-81
2021/03/06 09:38:26;;;;;;;6.93;5.65;;;;;;;4.01;91.35;95636.28;5042089;28;20516;-81
2021/03/06 09:40:54;;;;;;;16.05;9.70;;;;;;;3.95;90.13;95636.59;5094033;28;20208;-81
2021/03/06 09:43:28;;;;;;;10.10;6.53;;;;;;;3.89;89.85;95634.28;5093992;28;20242;-80
2021/03/06 09:45:56;;;;;;;6.47;4.55;;;;;;;3.95;89.72;95639.19;5093940;28;20220;-81
2021/03/06 09:48:24;;;;;;;7.13;4.53;;;;;;;3.79;89.29;95638.22;5094271;28;20209;-82
2021/03/06 09:50:53;;;;;;;6.32;5.38;;;;;;;3.80;90.00;95645.09;5094140;28;20251;-81
2021/03/06 09:53:21;;;;;;;5.78;5.15;;;;;;;3.80;90.68;95642.50;5094071;28;20202;-82
2021/03/06 09:56:02;;;;;;;8.45;6.35;;;;;;;3.76;90.49;95640.94;5093691;28;20208;-82
2021/03/06 09:58:29;;;;;;;10.20;6.60;;;;;;;3.74;91.75;95641.84;5094655;28;20205;-80
2021/03/06 10:01:11;;;;;;;7.67;5.57;;;;;;;3.73;93.39;95649.72;5094056;28;20448;-80
2021/03/06 10:03:38;;;;;;;12.90;8.00;;;;;;;3.71;92.47;95657.56;5094091;28;20957;-81
2021/03/06 10:06:07;;;;;;;14.82;8.40;;;;;;;3.79;92.92;95670.22;5097493;28;20438;-82
2021/03/06 10:08:39;;;;;;;14.35;9.38;;;;;;;3.90;94.06;95672.31;5098884;28;20190;-81
2021/03/06 10:11:06;;;;;;;16.77;8.67;;;;;;;3.78;93.13;95662.50;5098282;28;20201;-80
2021/03/06 10:13:33;;;;;;;9.50;7.47;;;;;;;3.80;93.17;95671.06;5097162;28;20451;-80
2021/03/06 10:16:00;;;;;;;13.07;7.65;;;;;;;3.76;92.30;95674.69;5097731;28;20201;-78
2021/03/06 10:18:27;;;;;;;12.18;8.27;;;;;;;3.83;92.93;95676.94;5097370;28;20221;-81
2021/03/06 10:20:55;;;;;;;6.87;5.27;;;;;;;3.89;92.36;95676.66;5097575;28;20625;-78
2021/03/06 10:23:35;;;;;;;9.40;6.97;;;;;;;3.98;91.13;95685.78;5097870;28;20510;-79
2021/03/06 10:26:25;;;;;;;6.70;6.03;;;;;;;3.96;89.86;95678.06;5097698;28;20197;-79
2021/03/06 10:28:54;;;;;;;9.10;6.97;;;;;;;3.91;89.06;95686.97;5096987;28;20442;-76
2021/03/06 10:31:36;;;;;;;11.68;7.25;;;;;;;3.86;89.53;95676.81;5096935;28;20515;-78
2021/03/06 10:34:20;;;;;;;10.80;6.97;;;;;;;3.83;89.61;95689.94;5096700;28;20233;-79
2021/03/06 10:37:09;;;;;;;10.35;6.72;;;;;;;3.82;90.15;95684.81;5095613;28;20479;-80
2021/03/06 10:39:50;;;;;;;10.37;6.67;;;;;;;3.90;90.61;95677.50;5095564;28;20193;-80
2021/03/06 10:42:17;;;;;;;12.52;8.07;;;;;;;3.86;90.81;95688.94;5095863;28;20443;-80
2021/03/06 10:44:44;;;;;;;12.18;9.35;;;;;;;3.92;91.32;95691.25;5096353;28;20251;-80
2021/03/06 10:47:10;;;;;;;10.73;7.70;;;;;;;3.93;91.04;95693.78;5091429;28;20201;-80
2021/03/06 10:49:39;;;;;;;12.43;7.30;;;;;;;4.03;91.08;95686.41;5094657;28;20442;-81
2021/03/06 10:52:10;;;;;;;12.32;8.70;;;;;;;4.01;91.78;95683.03;5076664;28;20224;-81
2021/03/06 10:54:51;;;;;;;25.80;13.68;;;;;;;4.13;91.24;95679.88;5076946;28;20190;-81
2021/03/06 10:57:18;;;;;;;37.05;22.60;;;;;;;4.14;91.20;95681.56;5076568;28;20226;-80
2021/03/06 10:59:45;;;;;;;13.65;10.32;;;;;;;4.22;90.99;95683.78;5076451;28;20197;-80
2021/03/06 11:02:27;;;;;;;11.17;9.00;;;;;;;4.24;90.13;95685.41;5076371;28;20206;-80
2021/03/06 11:04:54;;;;;;;23.20;13.73;;;;;;;4.33;91.17;95682.34;5081087;28;20455;-80
2021/03/06 11:07:29;;;;;;;18.93;12.17;;;;;;;4.44;91.15;95674.06;5096187;28;20185;-81
2021/03/06 11:10:00;;;;;;;14.30;10.25;;;;;;;4.51;89.22;95685.84;5093556;28;20448;-82
2021/03/06 11:12:31;;;;;;;20.03;12.30;;;;;;;4.58;88.79;95678.59;5088767;28;20641;-81
2021/03/06 11:15:09;;;;;;;15.37;10.43;;;;;;;4.69;87.51;95670.28;5091309;28;20857;-81
2021/03/06 11:17:36;;;;;;;15.23;8.47;;;;;;;4.69;84.71;95672.88;5095559;28;20491;-81
2021/03/06 11:20:03;;;;;;;13.03;9.07;;;;;;;4.71;83.42;95671.88;5095053;28;20949;-79
2021/03/06 11:22:30;;;;;;;11.10;7.93;;;;;;;4.70;82.84;95670.19;5095401;28;20451;-80
2021/03/06 11:24:56;;;;;;;13.47;8.57;;;;;;;4.75;82.34;95672.56;5095050;28;20475;-81
2021/03/06 11:27:23;;;;;;;10.53;8.10;;;;;;;4.75;82.54;95672.56;5094739;28;20450;-80
2021/03/06 11:29:52;;;;;;;10.97;8.27;;;;;;;4.78;82.06;95664.63;5094979;28;20583;-80
2021/03/06 11:32:20;;;;;;;15.30;8.47;;;;;;;4.79;82.47;95661.09;5094593;28;20482;-81
2021/03/06 11:34:47;;;;;;;14.60;8.43;;;;;;;4.76;82.60;95663.84;5094983;28;20447;-80
2021/03/06 11:37:14;;;;;;;10.67;7.87;;;;;;;4.65;83.35;95664.41;5094480;28;20479;-80
2021/03/06 11:39:40;;;;;;;13.90;9.87;;;;;;;4.69;83.41;95659.88;5094343;28;20448;-80